sensor_id;sensor_type;location;lat;lon;timestamp;temperature;humidity
74513;DHT22;62992;52.052;8.550;2023-03-21T00:00:24;8.50;99.90
74513;DHT22;62992;52.052;8.550;2023-03-21T00:03:08;8.50;99.90
74513;DHT22;62992;52.052;8.550;2023-03-21T00:05:53;8.50;99.90
74513;DHT22;62992;52.052;8.550;2023-03-21T00:08:38;8.50;99.90
74513;DHT22;62992;52.052;8.550;2023-03-21T00:11:22;8.60;99.90
74513;DHT22;62992;52.052;8.550;2023-03-21T00:14:06;8.50;99.90
74513;DHT22;62992;52.052;8.550;2023-03-21T00:16:52;8.50;99.90
74513;DHT22;62992;52.052;8.550;2023-03-21T00:19:36;8.60;99.90
74513;DHT22;62992;52.052;8.550;2023-03-21T00:22:21;8.50;99.90
74513;DHT22;62992;52.052;8.550;2023-03-21T00:25:06;8.50;99.90
74513;DHT22;62992;52.052;8.550;2023-03-21T00:27:51;8.50;99.90
74513;DHT22;62992;52.052;8.550;2023-03-21T00:30:35;8.50;99.90
74513;DHT22;62992;52.052;8.550;2023-03-21T00:33:19;8.50;99.90
74513;DHT22;62992;52.052;8.550;2023-03-21T00:36:04;8.50;99.90
74513;DHT22;62992;52.052;8.550;2023-03-21T00:38:48;8.50;99.90
74513;DHT22;62992;52.052;8.550;2023-03-21T00:41:32;8.50;99.90
74513;DHT22;62992;52.052;8.550;2023-03-21T00:44:16;8.50;99.90
74513;DHT22;62992;52.052;8.550;2023-03-21T00:47:03;8.50;99.90
74513;DHT22;62992;52.052;8.550;2023-03-21T00:49:48;8.50;99.90
74513;DHT22;62992;52.052;8.550;2023-03-21T00:52:32;8.50;99.90
74513;DHT22;62992;52.052;8.550;2023-03-21T00:55:18;8.50;99.90
74513;DHT22;62992;52.052;8.550;2023-03-21T00:58:02;8.40;99.90
74513;DHT22;62992;52.052;8.550;2023-03-21T01:00:46;8.40;99.90
74513;DHT22;62992;52.052;8.550;2023-03-21T01:03:32;8.40;99.90
74513;DHT22;62992;52.052;8.550;2023-03-21T01:06:25;8.30;99.90
74513;DHT22;62992;52.052;8.550;2023-03-21T01:09:16;8.30;99.90
74513;DHT22;62992;52.052;8.550;2023-03-21T01:12:02;8.30;99.90
74513;DHT22;62992;52.052;8.550;2023-03-21T01:14:46;8.30;99.90
74513;DHT22;62992;52.052;8.550;2023-03-21T01:17:30;8.30;99.90
74513;DHT22;62992;52.052;8.550;2023-03-21T01:20:14;8.30;99.90
74513;DHT22;62992;52.052;8.550;2023-03-21T01:22:59;8.30;99.90
74513;DHT22;62992;52.052;8.550;2023-03-21T01:25:46;8.20;99.90
74513;DHT22;62992;52.052;8.550;2023-03-21T01:28:33;8.20;99.90
74513;DHT22;62992;52.052;8.550;2023-03-21T01:31:18;8.20;99.90
74513;DHT22;62992;52.052;8.550;2023-03-21T01:34:02;8.20;99.90
74513;DHT22;62992;52.052;8.550;2023-03-21T01:36:46;8.20;99.90
74513;DHT22;62992;52.052;8.550;2023-03-21T01:39:32;8.30;99.90
74513;DHT22;62992;52.052;8.550;2023-03-21T01:42:17;8.30;99.90
74513;DHT22;62992;52.052;8.550;2023-03-21T01:46:00;8.40;99.90
74513;DHT22;62992;52.052;8.550;2023-03-21T01:48:11;8.40;99.90
74513;DHT22;62992;52.052;8.550;2023-03-21T01:50:56;8.30;99.90
74513;DHT22;62992;52.052;8.550;2023-03-21T01:53:41;8.30;99.90
74513;DHT22;62992;52.052;8.550;2023-03-21T01:56:30;8.30;99.90
74513;DHT22;62992;52.052;8.550;2023-03-21T01:59:20;8.40;99.90
74513;DHT22;62992;52.052;8.550;2023-03-21T02:02:09;8.40;99.90
74513;DHT22;62992;52.052;8.550;2023-03-21T02:04:54;8.30;99.90
74513;DHT22;62992;52.052;8.550;2023-03-21T02:07:42;8.40;99.90
74513;DHT22;62992;52.052;8.550;2023-03-21T02:10:27;8.40;99.90
74513;DHT22;62992;52.052;8.550;2023-03-21T02:13:12;8.30;99.90
74513;DHT22;62992;52.052;8.550;2023-03-21T02:16:12;8.40;99.90
74513;DHT22;62992;52.052;8.550;2023-03-21T02:22:11;8.40;99.90
74513;DHT22;62992;52.052;8.550;2023-03-21T02:27:58;8.40;99.90
74513;DHT22;62992;52.052;8.550;2023-03-21T02:34:16;8.40;99.90
74513;DHT22;62992;52.052;8.550;2023-03-21T02:37:15;8.40;99.90
74513;DHT22;62992;52.052;8.550;2023-03-21T02:40:11;8.40;99.90
74513;DHT22;62992;52.052;8.550;2023-03-21T02:43:12;8.40;99.90
74513;DHT22;62992;52.052;8.550;2023-03-21T02:46:09;8.40;99.90
74513;DHT22;62992;52.052;8.550;2023-03-21T02:49:11;8.40;99.90
74513;DHT22;62992;52.052;8.550;2023-03-21T02:52:01;8.30;99.90
74513;DHT22;62992;52.052;8.550;2023-03-21T02:54:45;8.30;99.90
74513;DHT22;62992;52.052;8.550;2023-03-21T02:57:32;8.30;99.90
74513;DHT22;62992;52.052;8.550;2023-03-21T03:00:19;8.30;99.90
74513;DHT22;62992;52.052;8.550;2023-03-21T03:03:04;8.30;99.90
74513;DHT22;62992;52.052;8.550;2023-03-21T03:05:57;8.30;99.90
74513;DHT22;62992;52.052;8.550;2023-03-21T03:09:16;8.30;99.90
74513;DHT22;62992;52.052;8.550;2023-03-21T03:15:10;8.30;99.90
74513;DHT22;62992;52.052;8.550;2023-03-21T03:18:04;8.30;99.90
74513;DHT22;62992;52.052;8.550;2023-03-21T03:21:13;8.30;99.90
74513;DHT22;62992;52.052;8.550;2023-03-21T03:26:53;8.30;99.90
74513;DHT22;62992;52.052;8.550;2023-03-21T03:29:40;8.30;99.90
74513;DHT22;62992;52.052;8.550;2023-03-21T03:32:33;8.30;99.90
74513;DHT22;62992;52.052;8.550;2023-03-21T03:35:20;8.30;99.90
74513;DHT22;62992;52.052;8.550;2023-03-21T03:38:06;8.30;99.90
74513;DHT22;62992;52.052;8.550;2023-03-21T03:40:54;8.30;99.90
74513;DHT22;62992;52.052;8.550;2023-03-21T03:43:49;8.30;99.90
74513;DHT22;62992;52.052;8.550;2023-03-21T03:47:00;8.30;99.90
74513;DHT22;62992;52.052;8.550;2023-03-21T03:50:36;8.30;99.90
74513;DHT22;62992;52.052;8.550;2023-03-21T03:53:27;8.30;99.90
74513;DHT22;62992;52.052;8.550;2023-03-21T03:56:13;8.30;99.90
74513;DHT22;62992;52.052;8.550;2023-03-21T03:58:58;8.30;99.90
74513;DHT22;62992;52.052;8.550;2023-03-21T04:01:44;8.30;99.90
74513;DHT22;62992;52.052;8.550;2023-03-21T04:04:28;8.30;99.90
74513;DHT22;62992;52.052;8.550;2023-03-21T04:07:14;8.40;99.90
74513;DHT22;62992;52.052;8.550;2023-03-21T04:09:58;8.40;99.90
74513;DHT22;62992;52.052;8.550;2023-03-21T04:12:43;8.40;99.90
74513;DHT22;62992;52.052;8.550;2023-03-21T04:15:27;8.40;99.90
74513;DHT22;62992;52.052;8.550;2023-03-21T04:18:11;8.40;99.90
74513;DHT22;62992;52.052;8.550;2023-03-21T04:20:55;8.40;99.90
74513;DHT22;62992;52.052;8.550;2023-03-21T04:23:40;8.50;99.90
74513;DHT22;62992;52.052;8.550;2023-03-21T04:26:24;8.50;99.90
74513;DHT22;62992;52.052;8.550;2023-03-21T04:29:13;8.50;99.90
74513;DHT22;62992;52.052;8.550;2023-03-21T04:31:58;8.60;99.90
74513;DHT22;62992;52.052;8.550;2023-03-21T04:34:43;8.60;99.90
74513;DHT22;62992;52.052;8.550;2023-03-21T04:37:33;8.60;99.90
74513;DHT22;62992;52.052;8.550;2023-03-21T04:40:18;8.60;99.90
74513;DHT22;62992;52.052;8.550;2023-03-21T04:43:02;8.60;99.90
74513;DHT22;62992;52.052;8.550;2023-03-21T04:45:46;8.60;99.90
74513;DHT22;62992;52.052;8.550;2023-03-21T04:48:30;8.60;99.90
74513;DHT22;62992;52.052;8.550;2023-03-21T04:51:15;8.60;99.90
74513;DHT22;62992;52.052;8.550;2023-03-21T04:53:59;8.60;99.90
74513;DHT22;62992;52.052;8.550;2023-03-21T04:56:43;8.60;99.90
74513;DHT22;62992;52.052;8.550;2023-03-21T04:59:27;8.60;99.90
74513;DHT22;62992;52.052;8.550;2023-03-21T05:02:12;8.60;99.90
74513;DHT22;62992;52.052;8.550;2023-03-21T05:04:56;8.60;99.90
74513;DHT22;62992;52.052;8.550;2023-03-21T05:07:41;8.60;99.90
74513;DHT22;62992;52.052;8.550;2023-03-21T05:10:25;8.60;99.90
74513;DHT22;62992;52.052;8.550;2023-03-21T05:13:09;8.60;99.90
74513;DHT22;62992;52.052;8.550;2023-03-21T05:15:53;8.60;99.90
74513;DHT22;62992;52.052;8.550;2023-03-21T05:18:37;8.60;99.90
74513;DHT22;62992;52.052;8.550;2023-03-21T05:21:21;8.60;99.90
74513;DHT22;62992;52.052;8.550;2023-03-21T05:24:15;8.60;99.90
74513;DHT22;62992;52.052;8.550;2023-03-21T05:27:00;8.60;99.90
74513;DHT22;62992;52.052;8.550;2023-03-21T05:29:45;8.60;99.90
74513;DHT22;62992;52.052;8.550;2023-03-21T05:32:29;8.60;99.90
74513;DHT22;62992;52.052;8.550;2023-03-21T05:35:13;8.70;99.90
74513;DHT22;62992;52.052;8.550;2023-03-21T05:37:57;8.70;99.90
74513;DHT22;62992;52.052;8.550;2023-03-21T05:40:48;8.70;99.90
74513;DHT22;62992;52.052;8.550;2023-03-21T05:43:33;8.80;99.90
74513;DHT22;62992;52.052;8.550;2023-03-21T05:46:17;8.80;99.90
74513;DHT22;62992;52.052;8.550;2023-03-21T05:49:01;8.80;99.90
74513;DHT22;62992;52.052;8.550;2023-03-21T05:51:45;8.80;99.90
74513;DHT22;62992;52.052;8.550;2023-03-21T05:54:29;8.80;99.90
74513;DHT22;62992;52.052;8.550;2023-03-21T05:57:13;8.90;99.90
74513;DHT22;62992;52.052;8.550;2023-03-21T05:59:57;8.90;99.90
74513;DHT22;62992;52.052;8.550;2023-03-21T06:02:41;8.90;99.90
74513;DHT22;62992;52.052;8.550;2023-03-21T06:05:26;9.00;99.90
74513;DHT22;62992;52.052;8.550;2023-03-21T06:08:10;9.00;99.90
74513;DHT22;62992;52.052;8.550;2023-03-21T06:10:54;9.00;99.90
74513;DHT22;62992;52.052;8.550;2023-03-21T06:13:38;9.10;99.90
74513;DHT22;62992;52.052;8.550;2023-03-21T06:16:23;9.10;99.90
74513;DHT22;62992;52.052;8.550;2023-03-21T06:19:07;9.10;99.90
74513;DHT22;62992;52.052;8.550;2023-03-21T06:21:51;9.20;99.90
74513;DHT22;62992;52.052;8.550;2023-03-21T06:24:35;9.20;99.90
74513;DHT22;62992;52.052;8.550;2023-03-21T06:27:19;9.30;99.90
74513;DHT22;62992;52.052;8.550;2023-03-21T06:30:04;9.30;99.90
74513;DHT22;62992;52.052;8.550;2023-03-21T06:32:49;9.30;99.90
74513;DHT22;62992;52.052;8.550;2023-03-21T06:35:33;9.30;99.90
74513;DHT22;62992;52.052;8.550;2023-03-21T06:38:17;9.30;99.90
74513;DHT22;62992;52.052;8.550;2023-03-21T06:41:01;9.30;99.90
74513;DHT22;62992;52.052;8.550;2023-03-21T06:43:47;9.40;99.90
74513;DHT22;62992;52.052;8.550;2023-03-21T06:46:31;9.40;99.90
74513;DHT22;62992;52.052;8.550;2023-03-21T06:49:16;9.40;99.90
74513;DHT22;62992;52.052;8.550;2023-03-21T06:52:01;9.40;99.90
74513;DHT22;62992;52.052;8.550;2023-03-21T06:54:45;9.50;99.90
74513;DHT22;62992;52.052;8.550;2023-03-21T06:57:30;9.50;99.90
74513;DHT22;62992;52.052;8.550;2023-03-21T07:00:14;9.50;99.90
74513;DHT22;62992;52.052;8.550;2023-03-21T07:02:59;9.60;99.90
74513;DHT22;62992;52.052;8.550;2023-03-21T07:05:44;9.60;99.90
74513;DHT22;62992;52.052;8.550;2023-03-21T07:08:28;9.60;99.90
74513;DHT22;62992;52.052;8.550;2023-03-21T07:11:12;9.60;99.90
74513;DHT22;62992;52.052;8.550;2023-03-21T07:13:56;9.70;99.90
74513;DHT22;62992;52.052;8.550;2023-03-21T07:16:40;9.70;99.90
74513;DHT22;62992;52.052;8.550;2023-03-21T07:19:25;9.80;99.90
74513;DHT22;62992;52.052;8.550;2023-03-21T07:22:09;9.80;99.90
74513;DHT22;62992;52.052;8.550;2023-03-21T07:24:53;9.80;99.90
74513;DHT22;62992;52.052;8.550;2023-03-21T07:27:37;9.80;99.90
74513;DHT22;62992;52.052;8.550;2023-03-21T07:30:21;9.80;99.90
74513;DHT22;62992;52.052;8.550;2023-03-21T07:33:06;9.90;99.90
74513;DHT22;62992;52.052;8.550;2023-03-21T07:35:51;9.90;99.90
74513;DHT22;62992;52.052;8.550;2023-03-21T07:38:36;9.90;99.90
74513;DHT22;62992;52.052;8.550;2023-03-21T07:41:21;9.90;99.90
74513;DHT22;62992;52.052;8.550;2023-03-21T07:44:05;9.90;99.90
74513;DHT22;62992;52.052;8.550;2023-03-21T07:46:49;10.00;99.90
74513;DHT22;62992;52.052;8.550;2023-03-21T07:49:33;10.00;99.90
74513;DHT22;62992;52.052;8.550;2023-03-21T07:52:18;9.90;99.90
74513;DHT22;62992;52.052;8.550;2023-03-21T07:55:03;9.80;99.90
74513;DHT22;62992;52.052;8.550;2023-03-21T07:57:50;9.70;99.90
74513;DHT22;62992;52.052;8.550;2023-03-21T08:00:34;9.70;99.90
74513;DHT22;62992;52.052;8.550;2023-03-21T08:03:18;9.60;99.90
74513;DHT22;62992;52.052;8.550;2023-03-21T08:06:03;9.60;99.90
74513;DHT22;62992;52.052;8.550;2023-03-21T08:08:47;9.60;99.90
74513;DHT22;62992;52.052;8.550;2023-03-21T08:11:31;9.70;99.90
74513;DHT22;62992;52.052;8.550;2023-03-21T08:14:15;9.70;99.90
74513;DHT22;62992;52.052;8.550;2023-03-21T08:16:59;9.80;99.90
74513;DHT22;62992;52.052;8.550;2023-03-21T08:19:43;9.80;99.90
74513;DHT22;62992;52.052;8.550;2023-03-21T08:22:28;9.80;99.90
74513;DHT22;62992;52.052;8.550;2023-03-21T08:25:13;9.70;99.90
74513;DHT22;62992;52.052;8.550;2023-03-21T08:27:58;9.70;99.90
74513;DHT22;62992;52.052;8.550;2023-03-21T08:30:42;9.60;99.90
74513;DHT22;62992;52.052;8.550;2023-03-21T08:33:26;9.60;99.90
74513;DHT22;62992;52.052;8.550;2023-03-21T08:36:10;9.60;99.90
74513;DHT22;62992;52.052;8.550;2023-03-21T08:38:54;9.60;99.90
74513;DHT22;62992;52.052;8.550;2023-03-21T08:41:47;9.50;99.90
74513;DHT22;62992;52.052;8.550;2023-03-21T08:44:31;9.70;99.90
74513;DHT22;62992;52.052;8.550;2023-03-21T08:47:15;9.70;99.90
74513;DHT22;62992;52.052;8.550;2023-03-21T08:49:59;9.80;99.90
74513;DHT22;62992;52.052;8.550;2023-03-21T08:52:44;9.70;99.90
74513;DHT22;62992;52.052;8.550;2023-03-21T08:55:28;9.70;99.90
74513;DHT22;62992;52.052;8.550;2023-03-21T08:58:13;9.70;99.90
74513;DHT22;62992;52.052;8.550;2023-03-21T09:00:57;9.70;99.90
74513;DHT22;62992;52.052;8.550;2023-03-21T09:03:41;9.70;99.90
74513;DHT22;62992;52.052;8.550;2023-03-21T09:06:26;9.70;99.90
74513;DHT22;62992;52.052;8.550;2023-03-21T09:09:11;9.80;99.90
74513;DHT22;62992;52.052;8.550;2023-03-21T09:11:55;9.80;99.90
74513;DHT22;62992;52.052;8.550;2023-03-21T09:14:39;9.70;99.90
74513;DHT22;62992;52.052;8.550;2023-03-21T09:17:24;9.70;99.90
74513;DHT22;62992;52.052;8.550;2023-03-21T09:20:10;9.70;99.90
74513;DHT22;62992;52.052;8.550;2023-03-21T09:23:01;9.60;99.90
74513;DHT22;62992;52.052;8.550;2023-03-21T09:25:46;9.60;99.90
74513;DHT22;62992;52.052;8.550;2023-03-21T09:28:30;9.50;99.90
74513;DHT22;62992;52.052;8.550;2023-03-21T09:31:16;9.50;99.90
74513;DHT22;62992;52.052;8.550;2023-03-21T09:34:05;9.50;99.90
74513;DHT22;62992;52.052;8.550;2023-03-21T09:36:50;9.40;99.90
74513;DHT22;62992;52.052;8.550;2023-03-21T09:39:40;9.50;99.90
74513;DHT22;62992;52.052;8.550;2023-03-21T09:42:45;9.50;99.90
74513;DHT22;62992;52.052;8.550;2023-03-21T09:45:47;9.50;99.90
74513;DHT22;62992;52.052;8.550;2023-03-21T09:51:43;9.60;99.90
74513;DHT22;62992;52.052;8.550;2023-03-21T09:54:38;9.80;99.90
74513;DHT22;62992;52.052;8.550;2023-03-21T09:57:37;9.90;99.90
74513;DHT22;62992;52.052;8.550;2023-03-21T10:00:29;9.90;99.90
74513;DHT22;62992;52.052;8.550;2023-03-21T10:03:23;9.80;99.90
74513;DHT22;62992;52.052;8.550;2023-03-21T10:06:12;9.80;99.90
74513;DHT22;62992;52.052;8.550;2023-03-21T10:12:01;9.90;99.90
74513;DHT22;62992;52.052;8.550;2023-03-21T10:14:51;9.90;99.90
74513;DHT22;62992;52.052;8.550;2023-03-21T10:17:42;9.90;99.90
74513;DHT22;62992;52.052;8.550;2023-03-21T10:20:35;10.00;99.90
74513;DHT22;62992;52.052;8.550;2023-03-21T10:23:21;10.00;99.90
74513;DHT22;62992;52.052;8.550;2023-03-21T10:26:07;9.90;99.90
74513;DHT22;62992;52.052;8.550;2023-03-21T10:28:53;9.90;99.90
74513;DHT22;62992;52.052;8.550;2023-03-21T10:31:41;10.10;99.90
74513;DHT22;62992;52.052;8.550;2023-03-21T10:34:41;10.20;99.90
74513;DHT22;62992;52.052;8.550;2023-03-21T10:37:26;10.30;99.90
74513;DHT22;62992;52.052;8.550;2023-03-21T10:40:15;10.30;99.90
74513;DHT22;62992;52.052;8.550;2023-03-21T10:43:38;10.20;99.90
74513;DHT22;62992;52.052;8.550;2023-03-21T10:46:25;10.30;99.90
74513;DHT22;62992;52.052;8.550;2023-03-21T10:49:15;10.30;99.90
74513;DHT22;62992;52.052;8.550;2023-03-21T10:52:03;10.30;99.90
74513;DHT22;62992;52.052;8.550;2023-03-21T10:54:49;10.30;99.90
74513;DHT22;62992;52.052;8.550;2023-03-21T10:57:47;10.50;99.90
74513;DHT22;62992;52.052;8.550;2023-03-21T11:00:38;10.40;99.90
74513;DHT22;62992;52.052;8.550;2023-03-21T11:03:29;10.50;99.90
74513;DHT22;62992;52.052;8.550;2023-03-21T11:06:27;10.40;99.90
74513;DHT22;62992;52.052;8.550;2023-03-21T11:09:15;10.40;99.90
74513;DHT22;62992;52.052;8.550;2023-03-21T11:12:47;10.30;99.90
74513;DHT22;62992;52.052;8.550;2023-03-21T11:18:21;10.30;99.90
74513;DHT22;62992;52.052;8.550;2023-03-21T11:21:10;10.30;99.90
74513;DHT22;62992;52.052;8.550;2023-03-21T11:23:55;10.30;99.90
74513;DHT22;62992;52.052;8.550;2023-03-21T11:26:42;10.30;99.90
74513;DHT22;62992;52.052;8.550;2023-03-21T11:29:30;10.30;99.90
74513;DHT22;62992;52.052;8.550;2023-03-21T11:32:20;10.20;99.90
74513;DHT22;62992;52.052;8.550;2023-03-21T11:35:15;10.10;99.90
74513;DHT22;62992;52.052;8.550;2023-03-21T11:38:02;10.30;99.90
74513;DHT22;62992;52.052;8.550;2023-03-21T11:40:57;10.40;99.90
74513;DHT22;62992;52.052;8.550;2023-03-21T11:43:50;10.40;99.90
74513;DHT22;62992;52.052;8.550;2023-03-21T11:46:39;10.50;99.90
74513;DHT22;62992;52.052;8.550;2023-03-21T11:49:24;10.50;99.90
74513;DHT22;62992;52.052;8.550;2023-03-21T11:58:38;10.40;99.90
74513;DHT22;62992;52.052;8.550;2023-03-21T12:01:37;10.30;99.90
74513;DHT22;62992;52.052;8.550;2023-03-21T12:07:39;10.30;99.90
74513;DHT22;62992;52.052;8.550;2023-03-21T12:13:27;10.30;99.90
74513;DHT22;62992;52.052;8.550;2023-03-21T12:22:34;10.30;99.90
74513;DHT22;62992;52.052;8.550;2023-03-21T12:34:57;10.30;99.90
74513;DHT22;62992;52.052;8.550;2023-03-21T12:40:56;10.30;99.90
74513;DHT22;62992;52.052;8.550;2023-03-21T12:49:35;10.20;99.90
74513;DHT22;62992;52.052;8.550;2023-03-21T12:52:31;10.30;99.90
74513;DHT22;62992;52.052;8.550;2023-03-21T12:55:21;10.20;99.90
74513;DHT22;62992;52.052;8.550;2023-03-21T12:58:13;10.20;99.90
74513;DHT22;62992;52.052;8.550;2023-03-21T13:01:02;10.30;99.90
74513;DHT22;62992;52.052;8.550;2023-03-21T13:04:05;10.30;99.90
74513;DHT22;62992;52.052;8.550;2023-03-21T13:06:52;10.50;99.90
74513;DHT22;62992;52.052;8.550;2023-03-21T13:09:39;10.50;99.90
74513;DHT22;62992;52.052;8.550;2023-03-21T13:12:42;10.60;99.90
74513;DHT22;62992;52.052;8.550;2023-03-21T13:16:05;10.50;99.90
74513;DHT22;62992;52.052;8.550;2023-03-21T13:19:07;10.50;99.90
74513;DHT22;62992;52.052;8.550;2023-03-21T13:24:51;10.50;99.90
74513;DHT22;62992;52.052;8.550;2023-03-21T13:27:40;10.60;99.90
74513;DHT22;62992;52.052;8.550;2023-03-21T13:30:27;10.80;99.90
74513;DHT22;62992;52.052;8.550;2023-03-21T13:33:15;10.80;99.90
74513;DHT22;62992;52.052;8.550;2023-03-21T13:36:07;10.90;99.90
74513;DHT22;62992;52.052;8.550;2023-03-21T13:38:57;11.10;99.90
74513;DHT22;62992;52.052;8.550;2023-03-21T13:41:43;11.00;99.90
74513;DHT22;62992;52.052;8.550;2023-03-21T13:44:39;11.10;99.90
74513;DHT22;62992;52.052;8.550;2023-03-21T13:47:34;11.00;99.90
74513;DHT22;62992;52.052;8.550;2023-03-21T13:50:30;11.10;99.90
74513;DHT22;62992;52.052;8.550;2023-03-21T13:53:22;11.30;99.90
74513;DHT22;62992;52.052;8.550;2023-03-21T13:59:02;11.20;99.90
74513;DHT22;62992;52.052;8.550;2023-03-21T14:05:03;11.10;99.90
74513;DHT22;62992;52.052;8.550;2023-03-21T14:07:51;11.10;99.90
74513;DHT22;62992;52.052;8.550;2023-03-21T14:10:40;11.10;99.90
74513;DHT22;62992;52.052;8.550;2023-03-21T14:13:26;11.10;99.90
74513;DHT22;62992;52.052;8.550;2023-03-21T14:16:14;11.10;99.90
74513;DHT22;62992;52.052;8.550;2023-03-21T14:19:04;11.20;99.90
74513;DHT22;62992;52.052;8.550;2023-03-21T14:21:49;11.20;99.90
74513;DHT22;62992;52.052;8.550;2023-03-21T14:24:36;11.20;99.90
74513;DHT22;62992;52.052;8.550;2023-03-21T14:27:21;11.30;99.90
74513;DHT22;62992;52.052;8.550;2023-03-21T14:30:11;11.40;99.90
74513;DHT22;62992;52.052;8.550;2023-03-21T14:35:50;11.40;99.90
74513;DHT22;62992;52.052;8.550;2023-03-21T14:38:37;11.30;99.90
74513;DHT22;62992;52.052;8.550;2023-03-21T14:41:25;11.30;99.90
74513;DHT22;62992;52.052;8.550;2023-03-21T14:47:29;11.40;99.90
74513;DHT22;62992;52.052;8.550;2023-03-21T14:50:15;11.40;99.90
74513;DHT22;62992;52.052;8.550;2023-03-21T14:52:59;11.40;99.90
74513;DHT22;62992;52.052;8.550;2023-03-21T14:55:46;11.40;99.90
74513;DHT22;62992;52.052;8.550;2023-03-21T14:58:33;11.30;99.90
74513;DHT22;62992;52.052;8.550;2023-03-21T15:01:30;11.30;99.90
74513;DHT22;62992;52.052;8.550;2023-03-21T15:04:17;11.30;99.90
74513;DHT22;62992;52.052;8.550;2023-03-21T15:07:02;11.40;99.90
74513;DHT22;62992;52.052;8.550;2023-03-21T15:09:51;11.30;99.90
74513;DHT22;62992;52.052;8.550;2023-03-21T15:12:36;11.30;99.90
74513;DHT22;62992;52.052;8.550;2023-03-21T15:15:20;11.30;99.90
74513;DHT22;62992;52.052;8.550;2023-03-21T15:18:06;11.40;99.90
74513;DHT22;62992;52.052;8.550;2023-03-21T15:20:53;11.40;99.90
74513;DHT22;62992;52.052;8.550;2023-03-21T15:23:41;11.40;99.90
74513;DHT22;62992;52.052;8.550;2023-03-21T15:26:26;11.40;99.90
74513;DHT22;62992;52.052;8.550;2023-03-21T15:29:12;11.40;99.90
74513;DHT22;62992;52.052;8.550;2023-03-21T15:31:57;11.40;99.90
74513;DHT22;62992;52.052;8.550;2023-03-21T15:34:42;11.40;99.90
74513;DHT22;62992;52.052;8.550;2023-03-21T15:37:27;11.40;99.90
74513;DHT22;62992;52.052;8.550;2023-03-21T15:40:19;11.40;99.90
74513;DHT22;62992;52.052;8.550;2023-03-21T15:43:18;11.40;99.90
74513;DHT22;62992;52.052;8.550;2023-03-21T15:46:15;11.30;99.90
74513;DHT22;62992;52.052;8.550;2023-03-21T15:49:18;11.30;99.90
74513;DHT22;62992;52.052;8.550;2023-03-21T15:52:12;11.30;99.90
74513;DHT22;62992;52.052;8.550;2023-03-21T15:54:57;11.30;99.90
74513;DHT22;62992;52.052;8.550;2023-03-21T15:57:44;11.30;99.90
74513;DHT22;62992;52.052;8.550;2023-03-21T16:03:27;11.20;99.90
74513;DHT22;62992;52.052;8.550;2023-03-21T16:06:52;11.10;99.90
74513;DHT22;62992;52.052;8.550;2023-03-21T16:09:44;11.10;99.90
74513;DHT22;62992;52.052;8.550;2023-03-21T16:12:28;11.10;99.90
74513;DHT22;62992;52.052;8.550;2023-03-21T16:15:13;11.00;99.90
74513;DHT22;62992;52.052;8.550;2023-03-21T16:17:59;11.00;99.90
74513;DHT22;62992;52.052;8.550;2023-03-21T16:20:45;10.90;99.90
74513;DHT22;62992;52.052;8.550;2023-03-21T16:23:29;11.00;99.90
74513;DHT22;62992;52.052;8.550;2023-03-21T16:26:16;11.00;99.90
74513;DHT22;62992;52.052;8.550;2023-03-21T16:29:02;11.00;99.90
74513;DHT22;62992;52.052;8.550;2023-03-21T16:31:47;11.00;99.90
74513;DHT22;62992;52.052;8.550;2023-03-21T16:34:31;10.90;99.90
74513;DHT22;62992;52.052;8.550;2023-03-21T16:37:15;10.90;99.90
74513;DHT22;62992;52.052;8.550;2023-03-21T16:39:59;10.90;99.90
74513;DHT22;62992;52.052;8.550;2023-03-21T16:42:43;10.90;99.90
74513;DHT22;62992;52.052;8.550;2023-03-21T16:45:28;11.00;99.90
74513;DHT22;62992;52.052;8.550;2023-03-21T16:48:13;11.00;99.90
74513;DHT22;62992;52.052;8.550;2023-03-21T16:50:59;10.90;99.90
74513;DHT22;62992;52.052;8.550;2023-03-21T16:53:44;10.90;99.90
74513;DHT22;62992;52.052;8.550;2023-03-21T16:56:35;10.80;99.90
74513;DHT22;62992;52.052;8.550;2023-03-21T16:59:20;10.80;99.90
74513;DHT22;62992;52.052;8.550;2023-03-21T17:02:11;10.80;99.90
74513;DHT22;62992;52.052;8.550;2023-03-21T17:04:56;10.70;99.90
74513;DHT22;62992;52.052;8.550;2023-03-21T17:07:40;10.70;99.90
74513;DHT22;62992;52.052;8.550;2023-03-21T17:10:28;10.70;99.90
74513;DHT22;62992;52.052;8.550;2023-03-21T17:13:13;10.60;99.90
74513;DHT22;62992;52.052;8.550;2023-03-21T17:15:57;10.60;99.90
74513;DHT22;62992;52.052;8.550;2023-03-21T17:18:41;10.60;99.90
74513;DHT22;62992;52.052;8.550;2023-03-21T17:21:27;10.60;99.90
74513;DHT22;62992;52.052;8.550;2023-03-21T17:24:12;10.70;99.90
74513;DHT22;62992;52.052;8.550;2023-03-21T17:26:57;10.70;99.90
74513;DHT22;62992;52.052;8.550;2023-03-21T17:29:42;10.60;99.90
74513;DHT22;62992;52.052;8.550;2023-03-21T17:32:26;10.60;99.90
74513;DHT22;62992;52.052;8.550;2023-03-21T17:35:10;10.60;99.90
74513;DHT22;62992;52.052;8.550;2023-03-21T17:37:56;10.60;99.90
74513;DHT22;62992;52.052;8.550;2023-03-21T17:40:41;10.60;99.90
74513;DHT22;62992;52.052;8.550;2023-03-21T17:43:25;10.50;99.90
74513;DHT22;62992;52.052;8.550;2023-03-21T17:46:14;10.50;99.90
74513;DHT22;62992;52.052;8.550;2023-03-21T17:48:58;10.50;99.90
74513;DHT22;62992;52.052;8.550;2023-03-21T17:51:42;10.50;99.90
74513;DHT22;62992;52.052;8.550;2023-03-21T17:54:29;10.50;99.90
74513;DHT22;62992;52.052;8.550;2023-03-21T17:57:14;10.50;99.90
74513;DHT22;62992;52.052;8.550;2023-03-21T17:59:58;10.40;99.90
74513;DHT22;62992;52.052;8.550;2023-03-21T18:02:42;10.40;99.90
74513;DHT22;62992;52.052;8.550;2023-03-21T18:05:26;10.40;99.90
74513;DHT22;62992;52.052;8.550;2023-03-21T18:08:10;10.40;99.90
74513;DHT22;62992;52.052;8.550;2023-03-21T18:10:55;10.40;99.90
74513;DHT22;62992;52.052;8.550;2023-03-21T18:13:40;10.40;99.90
74513;DHT22;62992;52.052;8.550;2023-03-21T18:16:25;10.40;99.90
74513;DHT22;62992;52.052;8.550;2023-03-21T18:19:12;10.40;99.90
74513;DHT22;62992;52.052;8.550;2023-03-21T18:21:56;10.40;99.90
74513;DHT22;62992;52.052;8.550;2023-03-21T18:24:40;10.50;99.90
74513;DHT22;62992;52.052;8.550;2023-03-21T18:27:25;10.50;99.90
74513;DHT22;62992;52.052;8.550;2023-03-21T18:30:14;10.50;99.90
74513;DHT22;62992;52.052;8.550;2023-03-21T18:32:59;10.50;99.90
74513;DHT22;62992;52.052;8.550;2023-03-21T18:35:43;10.50;99.90
74513;DHT22;62992;52.052;8.550;2023-03-21T18:38:27;10.50;99.90
74513;DHT22;62992;52.052;8.550;2023-03-21T18:41:12;10.50;99.90
74513;DHT22;62992;52.052;8.550;2023-03-21T18:43:58;10.50;99.90
74513;DHT22;62992;52.052;8.550;2023-03-21T18:46:42;10.50;99.90
74513;DHT22;62992;52.052;8.550;2023-03-21T18:49:34;10.50;99.90
74513;DHT22;62992;52.052;8.550;2023-03-21T18:52:18;10.50;99.90
74513;DHT22;62992;52.052;8.550;2023-03-21T18:55:04;10.50;99.90
74513;DHT22;62992;52.052;8.550;2023-03-21T18:57:48;10.50;99.90
74513;DHT22;62992;52.052;8.550;2023-03-21T19:00:33;10.50;99.90
74513;DHT22;62992;52.052;8.550;2023-03-21T19:03:18;10.50;99.90
74513;DHT22;62992;52.052;8.550;2023-03-21T19:06:03;10.50;99.90
74513;DHT22;62992;52.052;8.550;2023-03-21T19:08:47;10.50;99.90